createdAt,value
2018-04-20T00:01:55.000Z,95739.97
2018-04-20T00:04:22.503Z,95726.55
2018-04-20T00:06:50.005Z,95719.41
2018-04-20T00:09:17.547Z,95736.29
2018-04-20T00:11:45.244Z,95733.31
2018-04-20T00:14:12.752Z,95735.87
2018-04-20T00:16:40.290Z,95737.94
2018-04-20T00:19:07.802Z,95727.61
2018-04-20T00:21:35.349Z,95732.64
2018-04-20T00:24:02.900Z,95736.70
2018-04-20T00:26:30.434Z,95739.34
2018-04-20T00:28:58.017Z,95738.89
2018-04-20T00:31:25.529Z,95739.65
2018-04-20T00:33:53.027Z,95739.14
2018-04-20T00:36:20.552Z,95744.19
2018-04-20T00:38:48.106Z,95727.30
2018-04-20T00:41:15.611Z,95734.26
2018-04-20T00:43:43.123Z,95729.62
2018-04-20T00:46:10.671Z,95715.09
2018-04-20T00:48:38.168Z,95719.14
2018-04-20T00:51:05.666Z,95719.11
2018-04-20T00:53:44.849Z,95717.16
2018-04-20T00:56:12.348Z,95717.56
2018-04-20T00:58:39.840Z,95715.61
2018-04-20T01:01:07.343Z,95714.84
2018-04-20T01:03:34.886Z,95719.98
2018-04-20T01:06:02.367Z,95721.91
2018-04-20T01:08:29.869Z,95719.62
2018-04-20T01:10:57.382Z,95723.36
2018-04-20T01:13:24.886Z,95711.13
2018-04-20T01:15:52.394Z,95717.83
2018-04-20T01:18:19.890Z,95712.55
2018-04-20T01:20:47.387Z,95719.05
2018-04-20T01:23:14.944Z,95715.56
2018-04-20T01:25:42.443Z,95713.15
2018-04-20T01:28:09.938Z,95705.36
2018-04-20T01:30:37.438Z,95708.07
2018-04-20T01:33:04.935Z,95702.42
2018-04-20T01:35:32.432Z,95714.17
2018-04-20T01:37:59.940Z,95703.63
2018-04-20T01:40:27.435Z,95692.59
2018-04-20T01:42:54.929Z,95697.59
2018-04-20T01:45:22.434Z,95692.25
2018-04-20T01:47:49.934Z,95700.18
2018-04-20T01:50:17.436Z,95693.97
2018-04-20T01:52:44.940Z,95682.81
2018-04-20T01:55:12.443Z,95698.70
2018-04-20T01:57:39.934Z,95707.08
2018-04-20T02:00:07.444Z,95701.00
2018-04-20T02:02:34.951Z,95705.91
2018-04-20T02:05:02.448Z,95700.50
2018-04-20T02:07:29.967Z,95682.17
2018-04-20T02:09:57.483Z,95698.78
2018-04-20T02:12:24.993Z,95680.86
2018-04-20T02:14:52.510Z,95691.05
2018-04-20T02:17:20.058Z,95684.89
2018-04-20T02:19:47.566Z,95695.48
2018-04-20T02:22:15.065Z,95688.99
2018-04-20T02:24:42.571Z,95684.45
2018-04-20T02:27:10.123Z,95686.34
2018-04-20T02:29:37.615Z,95673.66
2018-04-20T02:32:05.156Z,95679.48
2018-04-20T02:34:32.705Z,95679.69
2018-04-20T02:37:00.208Z,95675.75
2018-04-20T02:39:27.747Z,95674.97
2018-04-20T02:41:55.333Z,95676.89
2018-04-20T02:44:22.845Z,95675.95
2018-04-20T02:46:50.367Z,95675.97
2018-04-20T02:49:17.867Z,95658.20
2018-04-20T02:51:45.633Z,95683.09
2018-04-20T02:54:13.203Z,95675.27
2018-04-20T02:56:40.795Z,95672.95
2018-04-20T02:59:08.304Z,95669.32
2018-04-20T03:01:35.855Z,95671.95
2018-04-20T03:04:03.415Z,95651.81
2018-04-20T03:06:30.921Z,95662.77
2018-04-20T03:08:58.459Z,95653.25
2018-04-20T03:11:25.969Z,95649.92
2018-04-20T03:13:53.468Z,95644.84
2018-04-20T03:16:20.971Z,95641.09
2018-04-20T03:18:48.472Z,95642.12
2018-04-20T03:21:15.990Z,95642.96
2018-04-20T03:23:43.496Z,95647.02
2018-04-20T03:26:11.002Z,95644.88
2018-04-20T03:28:38.495Z,95642.38
2018-04-20T03:31:05.995Z,95634.39
2018-04-20T03:33:33.508Z,95640.05
2018-04-20T03:36:01.007Z,95638.58
2018-04-20T03:38:28.509Z,95629.02
2018-04-20T03:40:56.066Z,95631.38
2018-04-20T03:43:23.562Z,95632.39
2018-04-20T03:45:51.068Z,95615.27
2018-04-20T03:48:18.616Z,95625.72
2018-04-20T03:50:46.120Z,95629.94
2018-04-20T03:53:13.620Z,95630.48
2018-04-20T03:55:41.116Z,95627.70
2018-04-20T03:58:08.608Z,95626.74
2018-04-20T04:00:36.151Z,95638.27
2018-04-20T04:03:03.658Z,95640.17
2018-04-20T04:05:31.183Z,95646.01
2018-04-20T04:07:58.750Z,95651.50
2018-04-20T04:10:26.256Z,95651.54
2018-04-20T04:12:53.757Z,95658.34
2018-04-20T04:15:21.267Z,95661.83
2018-04-20T04:18:00.631Z,95658.51
2018-04-20T04:20:36.959Z,95658.70
2018-04-20T04:23:16.722Z,95668.25
2018-04-20T04:25:56.139Z,95657.02
2018-04-20T04:28:27.474Z,95651.48
2018-04-20T04:30:55.013Z,95657.42
2018-04-20T04:33:22.507Z,95654.00
2018-04-20T04:35:50.083Z,95634.88
2018-04-20T04:38:17.591Z,95654.27
2018-04-20T04:40:45.204Z,95649.56
2018-04-20T04:43:12.708Z,95639.22
2018-04-20T04:45:40.231Z,95642.73
2018-04-20T04:48:07.761Z,95636.47
2018-04-20T04:50:35.342Z,95615.78
2018-04-20T04:53:02.848Z,95610.18
2018-04-20T04:55:30.351Z,95630.30
2018-04-20T04:57:57.843Z,95633.78
2018-04-20T05:00:25.392Z,95625.82
2018-04-20T05:02:52.935Z,95623.77
2018-04-20T05:05:20.500Z,95624.11
2018-04-20T05:07:48.053Z,95619.88
2018-04-20T05:10:15.612Z,95622.29
2018-04-20T05:12:43.115Z,95613.54
2018-04-20T05:15:10.615Z,95616.42
2018-04-20T05:17:38.111Z,95616.29
2018-04-20T05:20:05.655Z,95614.09
2018-04-20T05:22:33.155Z,95604.02
2018-04-20T05:25:00.688Z,95580.03
2018-04-20T05:27:28.244Z,95608.55
2018-04-20T05:29:55.787Z,95618.93
2018-04-20T05:32:23.345Z,95612.36
2018-04-20T05:34:50.852Z,95614.36
2018-04-20T05:37:18.412Z,95618.44
2018-04-20T05:39:45.967Z,95623.83
2018-04-20T05:42:13.481Z,95616.14
2018-04-20T05:44:40.990Z,95617.61
2018-04-20T05:47:08.517Z,95609.69
2018-04-20T05:49:36.039Z,95614.73
2018-04-20T05:52:03.600Z,95607.91
2018-04-20T05:54:31.117Z,95595.00
2018-04-20T05:56:58.652Z,95601.95
2018-04-20T05:59:26.162Z,95604.95
2018-04-20T06:01:53.751Z,95600.89
2018-04-20T06:04:21.270Z,95612.34
2018-04-20T06:06:48.775Z,95606.08
2018-04-20T06:09:16.329Z,95607.38
2018-04-20T06:11:43.878Z,95607.23
2018-04-20T06:14:11.394Z,95610.89
2018-04-20T06:16:38.891Z,95607.04
2018-04-20T06:19:06.399Z,95627.94
2018-04-20T06:21:34.229Z,95597.78
2018-04-20T06:24:01.736Z,95612.11
2018-04-20T06:26:29.250Z,95606.73
2018-04-20T06:28:56.755Z,95604.35
2018-04-20T06:31:24.275Z,95636.62
2018-04-20T06:33:51.824Z,95610.87
2018-04-20T06:36:19.325Z,95611.48
2018-04-20T06:38:46.846Z,95611.37
2018-04-20T06:41:14.354Z,95631.16
2018-04-20T06:43:41.913Z,95615.61
2018-04-20T06:46:09.501Z,95611.31
2018-04-20T06:48:37.021Z,95611.90
2018-04-20T06:51:04.602Z,95618.05
2018-04-20T06:53:32.116Z,95616.13
2018-04-20T06:55:59.639Z,95617.27
2018-04-20T06:58:27.165Z,95615.17
2018-04-20T07:00:54.669Z,95611.66
2018-04-20T07:03:22.188Z,95594.45
2018-04-20T07:05:49.685Z,95612.88
2018-04-20T07:08:17.222Z,95616.97
2018-04-20T07:10:44.715Z,95619.83
2018-04-20T07:13:12.238Z,95625.36
2018-04-20T07:15:39.742Z,95621.75
2018-04-20T07:18:07.284Z,95626.21
2018-04-20T07:20:34.803Z,95628.66
2018-04-20T07:23:02.358Z,95629.13
2018-04-20T07:25:29.851Z,95612.20
2018-04-20T07:27:57.371Z,95639.00
2018-04-20T07:30:24.874Z,95635.05
2018-04-20T07:32:52.391Z,95635.64
2018-04-20T07:35:19.918Z,95644.66
2018-04-20T07:37:47.432Z,95652.03
2018-04-20T07:40:14.939Z,95588.91
2018-04-20T07:42:42.472Z,95649.73
2018-04-20T07:45:09.966Z,95649.21
2018-04-20T07:47:37.476Z,95653.00
2018-04-20T07:50:05.008Z,95652.12
2018-04-20T07:52:32.511Z,95667.44
2018-04-20T07:55:00.030Z,95666.31
2018-04-20T07:57:27.533Z,95657.04
2018-04-20T07:59:55.085Z,95654.28
2018-04-20T08:02:22.587Z,95659.56
2018-04-20T08:04:50.101Z,95616.05
2018-04-20T08:07:17.615Z,95666.26
2018-04-20T08:09:45.117Z,95676.64
2018-04-20T08:12:12.660Z,95676.44
2018-04-20T08:14:40.229Z,95673.61
2018-04-20T08:17:07.799Z,95685.91
2018-04-20T08:19:35.307Z,95685.45
2018-04-20T08:22:02.823Z,95672.59
2018-04-20T08:24:30.331Z,95675.12
2018-04-20T08:26:57.868Z,95683.25
2018-04-20T08:29:25.450Z,95681.64
2018-04-20T08:31:52.976Z,95683.51
2018-04-20T08:34:20.532Z,95671.95
2018-04-20T08:36:48.039Z,95683.02
2018-04-20T08:39:15.589Z,95679.04
2018-04-20T08:41:43.115Z,95673.75
2018-04-20T08:44:10.616Z,95666.03
2018-04-20T08:46:38.175Z,95669.84
2018-04-20T08:49:05.670Z,95667.71
2018-04-20T08:51:33.228Z,95667.09
2018-04-20T08:54:00.816Z,95665.05
2018-04-20T08:56:28.304Z,95656.75
2018-04-20T08:58:55.812Z,95654.80
2018-04-20T09:01:23.348Z,95667.63
2018-04-20T09:03:50.864Z,95666.23
2018-04-20T09:06:18.420Z,95672.46
2018-04-20T09:08:45.925Z,95669.55
2018-04-20T09:11:13.443Z,95665.64
2018-04-20T09:13:40.988Z,95649.31
2018-04-20T09:16:08.517Z,95660.77
2018-04-20T09:18:36.092Z,95660.16
2018-04-20T09:21:03.599Z,95663.15
2018-04-20T09:23:31.114Z,95655.23
2018-04-20T09:25:58.610Z,95656.11
2018-04-20T09:28:26.108Z,95653.77
2018-04-20T09:30:53.646Z,95663.41
2018-04-20T09:33:21.146Z,95662.22
2018-04-20T09:35:48.706Z,95659.91
2018-04-20T09:38:16.212Z,95663.33
2018-04-20T09:40:43.779Z,95665.96
2018-04-20T09:43:11.284Z,95668.69
2018-04-20T09:45:38.820Z,95660.79
2018-04-20T09:48:06.362Z,95658.05
2018-04-20T09:50:33.863Z,95663.72
2018-04-20T09:53:01.431Z,95660.88
2018-04-20T09:55:28.956Z,95658.09
2018-04-20T09:57:56.491Z,95665.16
2018-04-20T10:00:24.055Z,95663.90
2018-04-20T10:02:51.952Z,95662.52
2018-04-20T10:05:24.388Z,95655.46
2018-04-20T10:07:51.953Z,95665.27
2018-04-20T10:10:19.451Z,95662.90
2018-04-20T10:12:46.962Z,95644.89
2018-04-20T10:15:14.512Z,95665.69
2018-04-20T10:17:42.033Z,95665.32
2018-04-20T10:20:09.556Z,95670.91
2018-04-20T10:22:37.077Z,95654.27
2018-04-20T10:25:04.573Z,95667.72
2018-04-20T10:27:32.114Z,95666.82
2018-04-20T10:29:59.663Z,95678.95
2018-04-20T10:32:27.171Z,95669.98
2018-04-20T10:34:54.725Z,95676.63
2018-04-20T10:37:22.227Z,95671.55
2018-04-20T10:39:49.731Z,95666.64
2018-04-20T10:42:17.275Z,95680.36
2018-04-20T10:44:44.779Z,95685.84
2018-04-20T10:47:12.403Z,95684.06
2018-04-20T10:49:39.918Z,95684.66
2018-04-20T10:52:07.431Z,95690.77
2018-04-20T10:54:34.939Z,95692.31
2018-04-20T10:57:02.438Z,95695.17
2018-04-20T10:59:29.963Z,95701.22
2018-04-20T11:01:57.471Z,95690.98
2018-04-20T11:04:25.031Z,95702.10
2018-04-20T11:06:52.531Z,95705.52
2018-04-20T11:09:20.051Z,95706.03
2018-04-20T11:11:47.610Z,95706.40
2018-04-20T11:14:15.106Z,95708.98
2018-04-20T11:16:42.629Z,95710.74
2018-04-20T11:19:10.124Z,95721.02
2018-04-20T11:21:38.488Z,95712.55
2018-04-20T11:24:06.048Z,95711.52
2018-04-20T11:26:33.559Z,95718.34
2018-04-20T11:29:01.104Z,95716.20
2018-04-20T11:31:28.598Z,95740.19
2018-04-20T11:33:56.134Z,95719.76
2018-04-20T11:36:23.643Z,95706.73
2018-04-20T11:38:51.174Z,95719.75
2018-04-20T11:41:18.667Z,95723.26
2018-04-20T11:43:46.207Z,95719.95
2018-04-20T11:46:13.706Z,95735.20
2018-04-20T11:48:41.255Z,95732.72
2018-04-20T11:51:08.806Z,95738.69
2018-04-20T11:53:36.324Z,95731.44
2018-04-20T11:56:03.841Z,95744.90
2018-04-20T11:58:31.352Z,95744.09
2018-04-20T12:00:58.895Z,95725.39
2018-04-20T12:03:26.412Z,95740.98
2018-04-20T12:05:53.927Z,95742.15
2018-04-20T12:08:21.476Z,95743.19
2018-04-20T12:10:49.001Z,95744.75
2018-04-20T12:13:16.543Z,95742.51
2018-04-20T12:15:44.060Z,95736.16
2018-04-20T12:18:11.604Z,95740.81
2018-04-20T12:20:39.110Z,95739.83
2018-04-20T12:23:06.647Z,95734.29
2018-04-20T12:25:34.150Z,95753.67
2018-04-20T12:28:01.658Z,95750.73
2018-04-20T12:30:29.302Z,95747.86
2018-04-20T12:32:56.807Z,95739.02
2018-04-20T12:35:24.299Z,95714.86
2018-04-20T12:37:51.807Z,95733.69
2018-04-20T12:40:19.360Z,95739.79
2018-04-20T12:42:46.863Z,95729.59
2018-04-20T12:45:14.358Z,95732.97
2018-04-20T12:47:41.912Z,95734.70
2018-04-20T12:50:09.488Z,95734.34
2018-04-20T12:52:36.978Z,95708.81
2018-04-20T12:55:04.471Z,95717.93
2018-04-20T12:57:32.019Z,95721.74
2018-04-20T12:59:59.524Z,95718.02
2018-04-20T13:02:27.081Z,95704.63
2018-04-20T13:04:54.625Z,95722.16
2018-04-20T13:07:22.124Z,95711.55
2018-04-20T13:09:49.640Z,95721.84
2018-04-20T13:12:17.513Z,95667.30
2018-04-20T13:14:45.025Z,95721.95
2018-04-20T13:17:12.538Z,95719.19
2018-04-20T13:19:40.056Z,95720.06
2018-04-20T13:22:07.555Z,95711.59
2018-04-20T13:24:35.051Z,95714.30
2018-04-20T13:27:02.578Z,95713.09
2018-04-20T13:29:30.092Z,95723.95
2018-04-20T13:31:57.610Z,95714.30
2018-04-20T13:34:25.237Z,95725.88
2018-04-20T13:36:52.684Z,95713.19
2018-04-20T13:39:20.176Z,95708.65
2018-04-20T13:41:48.037Z,95705.42
2018-04-20T13:44:15.536Z,95712.30
2018-04-20T13:46:44.032Z,95700.86
2018-04-20T13:49:11.543Z,95703.34
2018-04-20T13:51:39.099Z,95698.27
2018-04-20T13:54:06.603Z,95711.03
2018-04-20T13:56:34.109Z,95681.34
2018-04-20T13:59:01.607Z,95708.91
2018-04-20T14:01:29.141Z,95706.69
2018-04-20T14:03:56.689Z,95694.19
2018-04-20T14:06:24.188Z,95699.61
2018-04-20T14:08:51.740Z,95708.38
2018-04-20T14:11:19.263Z,95712.48
2018-04-20T14:13:46.767Z,95712.06
2018-04-20T14:16:14.275Z,95708.35
2018-04-20T14:18:41.769Z,95710.89
2018-04-20T14:21:09.308Z,95716.50
2018-04-20T14:23:36.825Z,95722.20
2018-04-20T14:26:04.324Z,95700.20
2018-04-20T14:28:31.831Z,95727.36
2018-04-20T14:30:59.364Z,95726.39
2018-04-20T14:33:26.871Z,95728.45
2018-04-20T14:35:54.379Z,95733.02
2018-04-20T14:38:21.911Z,95746.16
2018-04-20T14:40:49.468Z,95719.00
2018-04-20T14:43:17.023Z,95742.61
2018-04-20T14:45:44.528Z,95739.61
2018-04-20T14:48:12.045Z,95736.70
2018-04-20T14:50:39.544Z,95743.94
2018-04-20T14:53:07.054Z,95746.73
2018-04-20T14:55:34.560Z,95740.74
2018-04-20T14:58:02.057Z,95745.88
2018-04-20T15:00:29.603Z,95753.19
2018-04-20T15:02:57.115Z,95766.55
2018-04-20T15:05:24.660Z,95762.22
2018-04-20T15:07:52.199Z,95755.86
2018-04-20T15:10:19.694Z,95752.99
2018-04-20T15:12:47.244Z,95765.53
2018-04-20T15:15:14.743Z,95756.98
2018-04-20T15:17:42.239Z,95756.73
2018-04-20T15:20:09.812Z,95764.00
2018-04-20T15:22:37.319Z,95742.52
2018-04-20T15:25:04.869Z,95767.91
2018-04-20T15:27:32.416Z,95751.94
2018-04-20T15:30:00.464Z,95755.62
2018-04-20T15:32:27.960Z,95764.78
2018-04-20T15:34:55.498Z,95759.34
2018-04-20T15:37:22.999Z,95763.53
2018-04-20T15:39:50.493Z,95771.48
2018-04-20T15:42:17.995Z,95774.58
2018-04-20T15:44:45.545Z,95767.13
2018-04-20T15:47:13.044Z,95783.92
2018-04-20T15:49:40.574Z,95767.95
2018-04-20T15:52:08.129Z,95773.80
2018-04-20T15:54:35.652Z,95782.82
2018-04-20T15:57:03.165Z,95783.92
2018-04-20T15:59:30.709Z,95780.45
2018-04-20T16:01:58.214Z,95786.47
2018-04-20T16:04:25.728Z,95787.71
2018-04-20T16:06:53.348Z,95783.66
2018-04-20T16:09:20.846Z,95787.84
2018-04-20T16:11:48.409Z,95790.67
2018-04-20T16:14:15.911Z,95796.38
2018-04-20T16:16:43.454Z,95790.92
2018-04-20T16:19:10.952Z,95794.64
2018-04-20T16:21:38.500Z,95796.73
2018-04-20T16:24:06.007Z,95796.68
2018-04-20T16:26:33.547Z,95795.33
2018-04-20T16:29:01.060Z,95791.02
2018-04-20T16:31:28.639Z,95799.15
2018-04-20T16:33:56.141Z,95796.21
2018-04-20T16:36:23.643Z,95790.45
2018-04-20T16:38:51.209Z,95797.98
2018-04-20T16:41:18.704Z,95809.01
2018-04-20T16:43:46.415Z,95814.07
2018-04-20T16:46:13.915Z,95810.83
2018-04-20T16:48:41.477Z,95812.94
2018-04-20T16:51:08.979Z,95817.97
2018-04-20T16:53:36.483Z,95824.13
2018-04-20T16:56:03.992Z,95813.62
2018-04-20T16:58:31.590Z,95821.32
2018-04-20T17:00:59.134Z,95827.88
2018-04-20T17:03:26.640Z,95838.58
2018-04-20T17:05:54.141Z,95841.34
2018-04-20T17:08:21.647Z,95837.98
2018-04-20T17:10:49.152Z,95842.88
2018-04-20T17:13:16.692Z,95862.45
2018-04-20T17:15:44.200Z,95847.16
2018-04-20T17:18:11.802Z,95849.95
2018-04-20T17:20:39.323Z,95821.45
2018-04-20T17:23:06.820Z,95848.77
2018-04-20T17:25:34.339Z,95853.94
2018-04-20T17:28:01.849Z,95862.85
2018-04-20T17:30:29.454Z,95865.63
2018-04-20T17:32:56.962Z,95868.67
2018-04-20T17:35:24.465Z,95868.53
2018-04-20T17:37:51.963Z,95870.83
2018-04-20T17:40:19.475Z,95877.16
2018-04-20T17:42:46.977Z,95880.50
2018-04-20T17:45:14.481Z,95879.52
2018-04-20T17:47:42.004Z,95883.24
2018-04-20T17:50:09.516Z,95893.75
2018-04-20T17:52:37.077Z,95892.98
2018-04-20T17:55:04.579Z,95886.64
2018-04-20T17:57:32.093Z,95893.02
2018-04-20T17:59:59.598Z,95895.66
2018-04-20T18:02:27.104Z,95901.59
2018-04-20T18:04:54.603Z,95902.41
2018-04-20T18:07:22.153Z,95904.95
2018-04-20T18:09:49.660Z,95907.14
2018-04-20T18:12:17.164Z,95908.52
2018-04-20T18:14:44.679Z,95913.81
2018-04-20T18:17:12.183Z,95920.47
2018-04-20T18:19:39.721Z,95922.20
2018-04-20T18:22:07.217Z,95918.25
2018-04-20T18:24:34.730Z,95922.44
2018-04-20T18:27:02.248Z,95919.34
2018-04-20T18:29:29.757Z,95923.33
2018-04-20T18:31:57.264Z,95923.46
2018-04-20T18:34:24.759Z,95917.31
2018-04-20T18:36:52.251Z,95928.05
2018-04-20T18:39:19.747Z,95924.47
2018-04-20T18:41:47.252Z,95931.81
2018-04-20T18:44:14.787Z,95931.24
2018-04-20T18:46:42.335Z,95944.44
2018-04-20T18:49:09.839Z,95949.19
2018-04-20T18:51:37.367Z,95954.66
2018-04-20T18:54:04.883Z,95965.02
2018-04-20T18:56:32.383Z,95958.66
2018-04-20T18:58:59.891Z,95966.26
2018-04-20T19:01:27.408Z,95965.28
2018-04-20T19:03:54.956Z,95968.83
2018-04-20T19:06:22.519Z,95960.92
2018-04-20T19:08:50.044Z,95951.41
2018-04-20T19:11:17.608Z,95967.66
2018-04-20T19:13:45.131Z,95970.23
2018-04-20T19:16:12.681Z,95973.35
2018-04-20T19:18:40.194Z,95971.00
2018-04-20T19:21:08.582Z,95963.92
2018-04-20T19:23:36.102Z,95966.08
2018-04-20T19:26:03.614Z,95968.91
2018-04-20T19:28:31.156Z,95969.03
2018-04-20T19:30:58.666Z,95972.35
2018-04-20T19:33:26.213Z,95974.67
2018-04-20T19:35:53.720Z,95977.91
2018-04-20T19:38:21.248Z,95985.35
2018-04-20T19:40:48.761Z,95973.52
2018-04-20T19:43:16.302Z,95976.72
2018-04-20T19:45:43.818Z,95969.41
2018-04-20T19:48:11.331Z,95960.81
2018-04-20T19:50:38.849Z,95983.67
2018-04-20T19:53:06.359Z,95968.77
2018-04-20T19:55:33.868Z,95978.92
2018-04-20T19:58:01.377Z,95980.32
2018-04-20T20:00:28.883Z,95973.35
2018-04-20T20:02:56.423Z,95978.29
2018-04-20T20:05:23.971Z,95980.31
2018-04-20T20:07:51.480Z,95979.63
2018-04-20T20:10:18.992Z,95986.46
2018-04-20T20:12:46.496Z,95979.53
2018-04-20T20:15:14.012Z,95975.37
2018-04-20T20:17:41.830Z,95981.73
2018-04-20T20:20:09.339Z,95984.88
2018-04-20T20:22:36.882Z,95991.45
2018-04-20T20:25:04.429Z,95991.68
2018-04-20T20:27:31.912Z,95991.89
2018-04-20T20:29:59.423Z,96009.70
2018-04-20T20:32:26.929Z,96004.96
2018-04-20T20:34:54.435Z,96007.17
2018-04-20T20:37:21.942Z,96003.48
2018-04-20T20:39:49.449Z,96006.66
2018-04-20T20:42:16.962Z,96008.07
2018-04-20T20:44:44.463Z,96004.00
2018-04-20T20:47:11.994Z,96035.95
2018-04-20T20:49:39.509Z,96015.86
2018-04-20T20:52:07.027Z,96023.00
2018-04-20T20:54:34.533Z,96030.39
2018-04-20T20:57:02.967Z,96018.10
2018-04-20T20:59:31.287Z,96038.95
2018-04-20T21:01:58.786Z,96026.87
2018-04-20T21:04:26.293Z,96025.47
2018-04-20T21:06:53.819Z,96028.78
2018-04-20T21:09:21.374Z,96022.45
2018-04-20T21:11:48.943Z,96028.58
2018-04-20T21:14:16.481Z,96029.31
2018-04-20T21:16:44.024Z,96032.56
2018-04-20T21:19:11.611Z,96037.08
2018-04-20T21:21:39.144Z,96031.20
2018-04-20T21:24:06.644Z,96034.56
2018-04-20T21:26:34.470Z,96045.08
2018-04-20T21:29:01.972Z,96032.48
2018-04-20T21:31:29.493Z,96041.27
2018-04-20T21:33:59.378Z,96039.52
2018-04-20T21:36:24.619Z,96033.22
2018-04-20T21:38:52.141Z,96038.73
2018-04-20T21:41:19.648Z,96035.25
2018-04-20T21:43:47.160Z,96027.72
2018-04-20T21:46:14.662Z,96025.06
2018-04-20T21:48:42.168Z,96028.70
2018-04-20T21:51:09.672Z,96031.63
2018-04-20T21:53:37.219Z,96037.37
2018-04-20T21:56:04.753Z,96036.36
2018-04-20T21:58:32.263Z,96038.34
2018-04-20T22:00:59.831Z,96039.22
2018-04-20T22:03:27.383Z,96041.26
2018-04-20T22:05:55.939Z,96044.34
2018-04-20T22:08:23.492Z,96054.61
2018-04-20T22:10:51.074Z,96054.40
2018-04-20T22:13:18.613Z,96055.56
2018-04-20T22:15:46.168Z,96058.97
2018-04-20T22:18:13.703Z,96057.03
2018-04-20T22:20:41.255Z,96056.31
2018-04-20T22:23:08.835Z,96053.16
2018-04-20T22:25:36.371Z,96047.36
2018-04-20T22:28:04.041Z,96050.75
2018-04-20T22:30:31.627Z,96051.93
2018-04-20T22:32:59.151Z,96059.38
2018-04-20T22:35:26.690Z,96057.49
2018-04-20T22:37:54.234Z,96052.17
2018-04-20T22:40:21.767Z,96048.86
2018-04-20T22:42:49.280Z,96047.30
2018-04-20T22:45:16.828Z,96043.03
2018-04-20T22:47:44.377Z,96049.15
2018-04-20T22:50:11.924Z,96040.03
2018-04-20T22:52:39.432Z,96052.29
2018-04-20T22:55:06.936Z,96056.39
2018-04-20T22:57:34.484Z,96052.81
2018-04-20T23:00:02.001Z,96053.42
2018-04-20T23:02:29.511Z,96053.75
2018-04-20T23:04:57.024Z,96051.44
2018-04-20T23:07:24.580Z,96049.02
2018-04-20T23:09:52.191Z,96056.33
2018-04-20T23:12:19.772Z,96052.45
2018-04-20T23:14:47.304Z,96051.95
2018-04-20T23:17:14.959Z,96046.05
2018-04-20T23:19:42.504Z,96052.05
2018-04-20T23:22:10.085Z,96050.13
2018-04-20T23:27:10.529Z,96053.37
2018-04-20T23:29:38.133Z,96060.83
2018-04-20T23:32:05.663Z,96054.97
2018-04-20T23:34:33.215Z,96042.64
2018-04-20T23:37:00.759Z,96056.16
2018-04-20T23:39:28.337Z,96060.91
2018-04-20T23:41:55.864Z,96050.42
2018-04-20T23:44:23.416Z,96059.16
2018-04-20T23:46:50.993Z,96052.73
2018-04-20T23:49:18.529Z,96055.73
2018-04-20T23:51:46.067Z,96063.77
2018-04-20T23:54:13.618Z,96060.68
2018-04-20T23:56:42.073Z,96064.19
2018-04-20T23:59:09.639Z,96057.72
